Terminal Aerodrome Forecast
Issued by NWS Louisville, KY

Home | Current Version | Previous Version | Text Only | Print | Product List | Glossary On
Versions: 1 2 3 4 5 6 7 8 9 10 11 12 13 14 15 16 17 18 19
690
FTUS43 KLMK 262320
TAFLEX
TAF
KLEX 262320Z 2700/2724 17005KT 6SM HZ FEW050 BKN100
     FM270900 VRB03KT 4SM BR SCT250
     FM271400 19010KT P6SM SCT050=

USA.gov is the U.S. government's official web portal to all federal, state and local government web resources and services.